createdAt,value
2023-04-15T00:03:17.142Z,14.01
2023-04-15T00:08:19.880Z,13.88
2023-04-15T00:13:21.875Z,13.82
2023-04-15T00:18:25.517Z,13.77
2023-04-15T00:23:28.192Z,13.76
2023-04-15T00:28:34.214Z,13.66
2023-04-15T00:33:41.116Z,13.61
2023-04-15T00:38:45.978Z,13.63
2023-04-15T00:43:49.072Z,13.50
2023-04-15T00:48:52.298Z,13.52
2023-04-15T00:53:54.483Z,13.43
2023-04-15T00:58:57.594Z,13.30
2023-04-15T01:04:00.593Z,13.32
2023-04-15T01:09:03.571Z,13.21
2023-04-15T01:14:07.656Z,13.20
2023-04-15T01:19:13.772Z,13.15
2023-04-15T01:24:18.524Z,13.05
2023-04-15T01:29:20.871Z,13.02
2023-04-15T01:34:23.577Z,13.01
2023-04-15T01:39:29.292Z,12.93
2023-04-15T01:44:32.389Z,12.92
2023-04-15T01:49:35.209Z,12.85
2023-04-15T01:54:39.031Z,12.82
2023-04-15T01:59:46.262Z,12.79
2023-04-15T02:04:48.466Z,12.73
2023-04-15T02:09:51.965Z,12.67
2023-04-15T02:14:54.394Z,12.65
2023-04-15T02:19:57.971Z,12.66
2023-04-15T02:25:00.569Z,12.57
2023-04-15T02:30:03.805Z,12.56
2023-04-15T02:35:08.073Z,12.55
2023-04-15T02:40:13.904Z,12.46
2023-04-15T02:45:16.527Z,12.41
2023-04-15T02:50:20.256Z,12.41
2023-04-15T02:55:22.822Z,12.35
2023-04-15T03:00:25.615Z,12.35
2023-04-15T03:05:27.723Z,12.27
2023-04-15T03:10:29.967Z,12.21
2023-04-15T03:15:33.554Z,12.14
2023-04-15T03:20:36.805Z,12.10
2023-04-15T03:25:39.105Z,12.03
2023-04-15T03:30:47.079Z,12.00
2023-04-15T03:35:49.471Z,11.92
2023-04-15T03:40:51.793Z,11.90
2023-04-15T03:45:54.211Z,11.85
2023-04-15T03:50:57.073Z,11.81
2023-04-15T03:55:59.236Z,11.77
2023-04-15T04:01:01.734Z,11.76
2023-04-15T04:06:03.875Z,11.72
2023-04-15T04:11:06.844Z,11.71
2023-04-15T04:16:09.132Z,11.67
2023-04-15T04:21:13.986Z,11.61
2023-04-15T04:26:17.810Z,11.64
2023-04-15T04:31:20.229Z,11.58
2023-04-15T04:36:22.782Z,11.54
2023-04-15T04:41:24.913Z,11.54
2023-04-15T04:46:27.700Z,11.55
2023-04-15T04:51:29.950Z,11.49
2023-04-15T04:56:34.527Z,11.51
2023-04-15T05:01:39.285Z,11.52
2023-04-15T05:06:41.991Z,11.51
2023-04-15T05:11:44.646Z,11.45
2023-04-15T05:16:46.809Z,11.44
2023-04-15T05:21:50.754Z,11.39
2023-04-15T05:26:53.050Z,11.41
2023-04-15T05:31:55.355Z,11.37
2023-04-15T05:36:57.391Z,11.40
2023-04-15T05:42:00.234Z,11.41
2023-04-15T05:47:03.821Z,11.31
2023-04-15T05:52:08.486Z,11.32
2023-04-15T05:57:13.592Z,11.36
2023-04-15T06:02:16.728Z,11.36
2023-04-15T06:07:19.015Z,11.43
2023-04-15T06:12:21.449Z,11.48
2023-04-15T06:17:23.875Z,11.53
2023-04-15T06:22:26.050Z,11.55
2023-04-15T06:27:28.368Z,11.66
2023-04-15T06:32:32.298Z,11.72
2023-04-15T06:37:37.054Z,11.78
2023-04-15T06:42:39.190Z,11.89
2023-04-15T06:47:42.103Z,11.93
2023-04-15T06:52:46.717Z,11.99
2023-04-15T06:57:48.955Z,12.02
2023-04-15T07:02:51.549Z,12.10
2023-04-15T07:07:57.494Z,12.19
2023-04-15T07:12:59.580Z,12.24
2023-04-15T07:18:02.049Z,12.40
2023-04-15T07:23:04.478Z,12.53
2023-04-15T07:28:06.575Z,12.71
2023-04-15T07:33:08.580Z,12.89
2023-04-15T07:38:13.218Z,12.93
2023-04-15T07:43:16.018Z,13.00
2023-04-15T07:48:18.209Z,13.08
2023-04-15T07:53:21.026Z,13.14
2023-04-15T07:58:23.400Z,13.32
2023-04-15T08:03:26.498Z,13.36
2023-04-15T08:08:31.609Z,13.47
2023-04-15T08:13:35.846Z,13.62
2023-04-15T08:18:38.050Z,13.79
2023-04-15T08:23:40.835Z,13.92
2023-04-15T08:28:44.428Z,14.20
2023-04-15T08:33:47.822Z,14.51
2023-04-15T08:38:50.201Z,14.87
2023-04-15T08:43:55.772Z,15.31
2023-04-15T08:48:58.870Z,16.01
2023-04-15T08:54:02.748Z,16.61
2023-04-15T08:59:05.699Z,18.16
2023-04-15T09:04:08.722Z,19.21
2023-04-15T09:09:20.383Z,20.09
2023-04-15T09:14:23.348Z,20.85
2023-04-15T09:19:26.038Z,20.79
2023-04-15T09:24:34.626Z,21.80
2023-04-15T09:29:37.589Z,21.56
2023-04-15T09:34:40.049Z,21.87
2023-04-15T09:39:50.483Z,22.53
2023-04-15T09:44:56.958Z,23.39
2023-04-15T09:50:02.763Z,23.16
2023-04-15T09:55:11.184Z,23.45
2023-04-15T10:00:16.183Z,22.92
2023-04-15T10:05:20.255Z,22.83
2023-04-15T10:10:25.577Z,23.01
2023-04-15T10:15:31.559Z,23.16
2023-04-15T10:20:34.716Z,23.41
2023-04-15T10:25:37.944Z,23.55
2023-04-15T10:30:40.617Z,23.97
2023-04-15T10:35:43.430Z,23.74
2023-04-15T10:40:46.024Z,24.13
2023-04-15T10:45:51.793Z,23.47
2023-04-15T10:50:58.058Z,23.97
2023-04-15T10:56:00.248Z,24.36
2023-04-15T11:01:05.303Z,24.00
2023-04-15T11:06:08.021Z,24.52
2023-04-15T11:11:14.232Z,25.04
2023-04-15T11:16:16.788Z,24.99
2023-04-15T11:21:18.760Z,24.74
2023-04-15T11:26:27.187Z,24.81
2023-04-15T11:31:29.677Z,24.99
2023-04-15T11:36:32.424Z,24.96
2023-04-15T11:41:36.514Z,24.63
2023-04-15T11:46:40.235Z,24.52
2023-04-15T11:51:43.534Z,24.22
2023-04-15T11:56:51.510Z,23.79
2023-04-15T12:01:54.429Z,23.48
2023-04-15T12:07:06.370Z,22.87
2023-04-15T12:12:08.631Z,23.01
2023-04-15T12:17:11.887Z,23.03
2023-04-15T12:22:16.528Z,22.85
2023-04-15T12:27:21.860Z,22.64
2023-04-15T12:32:25.599Z,22.16
2023-04-15T12:37:27.871Z,22.34
2023-04-15T12:42:30.272Z,22.31
2023-04-15T12:47:32.744Z,22.06
2023-04-15T12:52:35.017Z,21.75
2023-04-15T12:57:38.691Z,21.59
2023-04-15T13:02:41.318Z,21.91
2023-04-15T13:07:44.301Z,22.03
2023-04-15T13:12:47.579Z,22.14
2023-04-15T13:17:50.794Z,22.17
2023-04-15T13:22:53.524Z,22.31
2023-04-15T13:27:56.065Z,22.30
2023-04-15T13:32:59.350Z,22.25
2023-04-15T13:38:01.722Z,21.95
2023-04-15T13:43:04.366Z,22.06
2023-04-15T13:48:06.577Z,22.13
2023-04-15T13:53:08.651Z,22.17
2023-04-15T13:58:11.501Z,22.23
2023-04-15T14:03:13.676Z,22.24
2023-04-15T14:08:15.872Z,22.36
2023-04-15T14:13:19.683Z,22.29
2023-04-15T14:18:21.958Z,22.20
2023-04-15T14:23:24.248Z,22.09
2023-04-15T14:28:26.260Z,22.26
2023-04-15T14:33:28.364Z,22.40
2023-04-15T14:38:30.769Z,22.36
2023-04-15T14:43:33.470Z,22.46
2023-04-15T14:48:35.881Z,22.44
2023-04-15T14:53:38.246Z,22.28
2023-04-15T14:58:40.500Z,22.31
2023-04-15T15:03:44.172Z,22.62
2023-04-15T15:08:51.948Z,22.68
2023-04-15T15:13:55.400Z,22.71
2023-04-15T15:18:57.856Z,22.22
2023-04-15T15:24:05.813Z,22.09
2023-04-15T15:29:08.326Z,22.28
2023-04-15T15:34:11.066Z,22.03
2023-04-15T15:39:18.008Z,21.94
2023-04-15T15:44:20.207Z,21.95
2023-04-15T15:49:26.018Z,22.02
2023-04-15T15:54:28.167Z,22.02
2023-04-15T15:59:30.644Z,21.92
2023-04-15T16:04:33.032Z,21.98
2023-04-15T16:09:35.606Z,21.89
2023-04-15T16:14:38.556Z,21.71
2023-04-15T16:19:41.206Z,21.47
2023-04-15T16:25:08.822Z,21.63
2023-04-15T16:30:11.905Z,21.58
2023-04-15T16:35:17.002Z,21.63
2023-04-15T16:40:19.636Z,21.58
2023-04-15T16:45:27.060Z,21.53
2023-04-15T16:50:32.296Z,21.56
2023-04-15T16:55:34.601Z,21.70
2023-04-15T17:00:37.293Z,21.75
2023-04-15T17:05:39.810Z,21.70
2023-04-15T17:10:41.927Z,21.64
2023-04-15T17:15:44.267Z,21.56
2023-04-15T17:20:50.958Z,21.42
2023-04-15T17:25:54.398Z,21.40
2023-04-15T17:30:57.310Z,21.37
2023-04-15T17:35:59.507Z,21.12
2023-04-15T17:41:02.810Z,20.96
2023-04-15T17:46:07.482Z,20.78
2023-04-15T17:51:09.876Z,20.62
2023-04-15T17:56:13.793Z,20.77
2023-04-15T18:01:18.904Z,20.79
2023-04-15T18:06:23.489Z,20.66
2023-04-15T18:11:25.877Z,20.54
2023-04-15T18:16:28.402Z,20.50
2023-04-15T18:21:32.133Z,20.43
2023-04-15T18:26:37.754Z,20.38
2023-04-15T18:31:43.972Z,20.32
2023-04-15T18:36:46.951Z,20.28
2023-04-15T18:41:50.778Z,20.17
2023-04-15T18:46:53.699Z,20.13
2023-04-15T18:51:56.076Z,19.99
2023-04-15T18:56:58.294Z,19.86
2023-04-15T19:02:01.358Z,19.75
2023-04-15T19:07:03.753Z,19.65
2023-04-15T19:12:06.350Z,19.54
2023-04-15T19:17:08.503Z,19.43
2023-04-15T19:22:10.696Z,19.40
2023-04-15T19:27:19.996Z,19.32
2023-04-15T19:32:22.270Z,19.27
2023-04-15T19:37:24.609Z,19.17
2023-04-15T19:42:27.015Z,19.04
2023-04-15T19:47:29.052Z,18.95
2023-04-15T19:52:31.806Z,18.86
2023-04-15T19:57:35.023Z,18.83
2023-04-15T20:02:37.320Z,18.73
2023-04-15T20:07:42.850Z,18.68
2023-04-15T20:12:49.894Z,18.64
2023-04-15T20:17:55.051Z,18.51
2023-04-15T20:22:57.429Z,18.47
2023-04-15T20:28:00.998Z,18.44
2023-04-15T20:33:05.476Z,18.34
2023-04-15T20:38:08.244Z,18.15
2023-04-15T20:43:10.836Z,18.14
2023-04-15T20:48:14.304Z,18.11
2023-04-15T20:53:17.761Z,18.09
2023-04-15T20:58:20.152Z,17.80
2023-04-15T21:03:22.694Z,17.71
2023-04-15T21:08:32.344Z,17.54
2023-04-15T21:13:43.679Z,17.50
2023-04-15T21:18:48.616Z,17.37
2023-04-15T21:23:51.389Z,17.22
2023-04-15T21:28:57.589Z,17.20
2023-04-15T21:33:59.768Z,16.94
2023-04-15T21:39:01.845Z,16.93
2023-04-15T21:44:04.404Z,16.80
2023-04-15T21:49:07.192Z,16.64
2023-04-15T21:54:09.968Z,16.59
2023-04-15T21:59:12.297Z,16.57
2023-04-15T22:04:14.535Z,16.43
2023-04-15T22:09:16.988Z,16.39
2023-04-15T22:14:25.300Z,16.35
2023-04-15T22:19:27.529Z,16.32
2023-04-15T22:24:39.427Z,16.23
2023-04-15T22:29:42.793Z,16.14
2023-04-15T22:34:45.087Z,16.10
2023-04-15T22:39:47.854Z,16.11
2023-04-15T22:44:50.881Z,16.08
2023-04-15T22:49:55.805Z,16.10
2023-04-15T22:54:58.440Z,16.10
2023-04-15T23:00:03.137Z,16.08
2023-04-15T23:05:12.470Z,15.96
2023-04-15T23:10:16.259Z,15.97
2023-04-15T23:15:20.793Z,16.03
2023-04-15T23:20:25.761Z,15.92
2023-04-15T23:25:28.168Z,15.84
2023-04-15T23:30:32.292Z,15.82
2023-04-15T23:35:34.907Z,15.77
2023-04-15T23:40:37.054Z,15.72
2023-04-15T23:45:40.874Z,15.62
2023-04-15T23:50:43.401Z,15.54
2023-04-15T23:55:49.123Z,15.47
